createdAt,value
2018-01-12T00:01:32.072Z,3.60
2018-01-12T00:03:59.955Z,3.60
2018-01-12T00:06:27.911Z,3.60
2018-01-12T00:08:55.355Z,3.50
2018-01-12T00:11:22.804Z,3.60
2018-01-12T00:13:50.279Z,3.50
2018-01-12T00:16:17.719Z,3.40
2018-01-12T00:18:45.190Z,3.50
2018-01-12T00:21:12.626Z,3.50
2018-01-12T00:23:40.180Z,3.40
2018-01-12T00:26:07.670Z,3.50
2018-01-12T00:28:35.134Z,3.40
2018-01-12T00:31:02.588Z,3.10
2018-01-12T00:33:30.043Z,3.10
2018-01-12T00:35:57.499Z,3.30
2018-01-12T00:38:25.234Z,3.20
2018-01-12T00:40:52.664Z,3.10
2018-01-12T00:43:20.876Z,3.10
2018-01-12T00:45:48.347Z,3.10
2018-01-12T00:48:15.794Z,3.20
2018-01-12T00:50:43.235Z,3.30
2018-01-12T00:53:10.709Z,3.40
2018-01-12T00:55:38.160Z,3.40
2018-01-12T00:58:05.609Z,3.50
2018-01-12T01:00:33.086Z,3.40
2018-01-12T01:03:00.646Z,3.40
2018-01-12T01:05:28.207Z,3.40
2018-01-12T01:07:55.650Z,3.40
2018-01-12T01:10:23.112Z,3.40
2018-01-12T01:12:50.551Z,3.40
2018-01-12T01:15:18.108Z,3.40
2018-01-12T01:17:45.531Z,3.20
2018-01-12T01:20:13.763Z,3.20
2018-01-12T01:22:41.715Z,3.20
2018-01-12T01:25:09.197Z,3.10
2018-01-12T01:27:37.199Z,3.10
2018-01-12T01:30:04.736Z,3.00
2018-01-12T01:32:32.166Z,3.00
2018-01-12T01:34:59.610Z,3.00
2018-01-12T01:37:27.898Z,3.00
2018-01-12T01:39:55.380Z,3.00
2018-01-12T01:42:22.815Z,3.10
2018-01-12T01:44:50.283Z,3.10
2018-01-12T01:47:17.721Z,3.10
2018-01-12T01:49:45.179Z,3.10
2018-01-12T01:52:12.611Z,3.10
2018-01-12T01:54:40.070Z,3.20
2018-01-12T01:57:07.526Z,3.30
2018-01-12T01:59:34.964Z,3.40
2018-01-12T02:02:03.192Z,3.50
2018-01-12T02:04:30.643Z,3.50
2018-01-12T02:06:58.094Z,3.60
2018-01-12T02:09:25.553Z,3.70
2018-01-12T02:11:53.055Z,3.70
2018-01-12T02:14:20.755Z,3.80
2018-01-12T02:16:48.208Z,3.90
2018-01-12T02:19:15.647Z,3.90
2018-01-12T02:21:43.498Z,3.90
2018-01-12T02:24:11.732Z,3.90
2018-01-12T02:26:39.187Z,3.90
2018-01-12T02:29:06.659Z,3.80
2018-01-12T02:31:34.106Z,3.80
2018-01-12T02:34:01.564Z,3.90
2018-01-12T02:36:29.015Z,4.00
2018-01-12T02:38:56.579Z,4.00
2018-01-12T02:41:25.022Z,4.10
2018-01-12T02:43:52.490Z,4.10
2018-01-12T02:46:19.938Z,4.00
2018-01-12T02:48:48.023Z,4.10
2018-01-12T02:51:15.466Z,4.00
2018-01-12T02:53:42.911Z,4.00
2018-01-12T02:56:10.406Z,4.00
2018-01-12T02:58:37.959Z,4.00
2018-01-12T03:01:05.427Z,3.80
2018-01-12T03:03:32.862Z,3.80
2018-01-12T03:06:00.369Z,3.80
2018-01-12T03:08:27.818Z,3.70
2018-01-12T03:10:55.259Z,3.70
2018-01-12T03:13:22.709Z,3.70
2018-01-12T03:15:50.186Z,3.80
2018-01-12T03:18:17.622Z,3.80
2018-01-12T03:20:45.200Z,3.80
2018-01-12T03:23:12.734Z,3.90
2018-01-12T03:25:40.194Z,3.80
2018-01-12T03:28:07.647Z,3.80
2018-01-12T03:30:35.519Z,3.90
2018-01-12T03:33:02.974Z,3.90
2018-01-12T03:35:30.426Z,3.80
2018-01-12T03:37:57.887Z,3.80
2018-01-12T03:40:25.324Z,3.80
2018-01-12T03:42:52.771Z,3.80
2018-01-12T03:45:20.258Z,3.90
2018-01-12T03:47:47.713Z,4.00
2018-01-12T03:50:15.162Z,4.00
2018-01-12T03:52:43.446Z,4.00
2018-01-12T03:55:10.893Z,4.00
2018-01-12T03:57:38.359Z,4.00
2018-01-12T04:00:05.796Z,3.90
2018-01-12T04:02:33.274Z,3.80
2018-01-12T04:05:00.747Z,3.90
2018-01-12T04:07:28.269Z,3.90
2018-01-12T04:09:55.790Z,3.90
2018-01-12T04:12:23.240Z,4.00
2018-01-12T04:14:50.675Z,4.10
2018-01-12T04:17:18.214Z,4.20
2018-01-12T04:19:45.662Z,4.20
2018-01-12T04:22:13.110Z,4.10
2018-01-12T04:24:40.610Z,4.00
2018-01-12T04:27:08.059Z,4.00
2018-01-12T04:29:35.498Z,4.00
2018-01-12T04:32:03.307Z,4.00
2018-01-12T04:34:31.527Z,3.90
2018-01-12T04:36:58.976Z,3.90
2018-01-12T04:39:26.459Z,3.80
2018-01-12T04:41:53.898Z,3.90
2018-01-12T04:44:21.346Z,3.80
2018-01-12T04:46:48.830Z,3.80
2018-01-12T04:49:16.286Z,3.90
2018-01-12T04:51:43.740Z,3.90
2018-01-12T04:54:11.915Z,4.00
2018-01-12T04:56:39.359Z,4.00
2018-01-12T04:59:06.835Z,4.00
2018-01-12T05:01:35.119Z,3.90
2018-01-12T05:04:02.691Z,3.70
2018-01-12T05:06:30.162Z,3.70
2018-01-12T05:08:58.386Z,3.60
2018-01-12T05:11:25.855Z,3.60
2018-01-12T05:13:53.311Z,3.60
2018-01-12T05:16:21.370Z,3.60
2018-01-12T05:18:48.815Z,3.60
2018-01-12T05:21:16.739Z,3.60
2018-01-12T05:23:44.186Z,3.60
2018-01-12T05:26:11.623Z,3.70
2018-01-12T05:28:39.071Z,3.70
2018-01-12T05:31:07.319Z,3.70
2018-01-12T05:33:34.768Z,3.70
2018-01-12T05:36:02.995Z,3.80
2018-01-12T05:38:30.443Z,3.70
2018-01-12T05:40:57.891Z,3.60
2018-01-12T05:43:25.327Z,3.50
2018-01-12T05:45:52.814Z,3.60
2018-01-12T05:48:20.262Z,3.60
2018-01-12T05:50:47.715Z,3.70
2018-01-12T05:53:15.152Z,3.70
2018-01-12T05:55:42.598Z,3.70
2018-01-12T05:58:10.086Z,3.80
2018-01-12T06:00:37.546Z,3.90
2018-01-12T06:03:16.931Z,4.00
2018-01-12T06:06:10.895Z,4.00
2018-01-12T06:08:39.158Z,3.80
2018-01-12T06:11:07.302Z,3.80
2018-01-12T06:13:34.748Z,3.70
2018-01-12T06:16:02.214Z,3.70
2018-01-12T06:18:29.658Z,3.80
2018-01-12T06:20:57.102Z,3.70
2018-01-12T06:23:24.541Z,3.70
2018-01-12T06:25:52.846Z,3.70
2018-01-12T06:28:20.274Z,3.70
2018-01-12T06:30:48.483Z,3.70
2018-01-12T06:33:15.950Z,3.70
2018-01-12T06:35:43.403Z,3.80
2018-01-12T06:38:10.877Z,3.90
2018-01-12T06:40:38.330Z,3.90
2018-01-12T06:43:05.778Z,3.80
2018-01-12T06:45:33.240Z,3.80
2018-01-12T06:48:00.776Z,3.70
2018-01-12T06:50:28.255Z,3.70
2018-01-12T06:52:55.699Z,3.70
2018-01-12T06:55:23.150Z,3.80
2018-01-12T06:57:50.586Z,3.80
2018-01-12T07:00:18.106Z,3.80
2018-01-12T07:02:45.641Z,3.80
2018-01-12T07:05:13.087Z,3.80
2018-01-12T07:07:40.556Z,3.80
2018-01-12T07:10:08.138Z,3.80
2018-01-12T07:12:35.672Z,3.80
2018-01-12T07:15:03.118Z,3.80
2018-01-12T07:17:30.555Z,3.80
2018-01-12T07:19:58.018Z,3.80
2018-01-12T07:22:27.339Z,3.90
2018-01-12T07:24:55.315Z,3.80
2018-01-12T07:27:22.793Z,3.90
2018-01-12T07:29:50.415Z,3.90
2018-01-12T07:32:17.863Z,3.70
2018-01-12T07:34:45.349Z,3.80
2018-01-12T07:37:12.794Z,4.30
2018-01-12T07:39:40.234Z,4.70
2018-01-12T07:42:07.714Z,4.70
2018-01-12T07:44:35.169Z,4.70
2018-01-12T07:47:02.624Z,4.50
2018-01-12T07:49:30.070Z,4.40
2018-01-12T07:51:57.542Z,4.20
2018-01-12T07:54:24.998Z,4.10
2018-01-12T07:56:52.454Z,4.10
2018-01-12T07:59:19.995Z,3.90
2018-01-12T08:01:54.510Z,3.90
2018-01-12T08:04:22.012Z,3.80
2018-01-12T08:06:49.458Z,3.90
2018-01-12T08:09:17.011Z,3.80
2018-01-12T08:11:44.453Z,3.80
2018-01-12T08:14:11.890Z,3.70
2018-01-12T08:16:39.473Z,3.80
2018-01-12T08:19:06.917Z,3.80
2018-01-12T08:21:34.419Z,3.90
2018-01-12T08:24:01.866Z,4.10
2018-01-12T08:26:29.306Z,4.60
2018-01-12T08:28:56.765Z,4.80
2018-01-12T08:31:24.220Z,4.90
2018-01-12T08:33:51.654Z,5.10
2018-01-12T08:36:19.097Z,5.20
2018-01-12T08:38:47.222Z,5.40
2018-01-12T08:41:14.761Z,5.40
2018-01-12T08:43:42.195Z,5.40
2018-01-12T08:46:09.636Z,5.00
2018-01-12T08:48:37.110Z,4.90
2018-01-12T08:51:04.530Z,5.00
2018-01-12T08:53:32.734Z,4.60
2018-01-12T08:56:00.174Z,4.60
2018-01-12T08:58:27.624Z,4.40
2018-01-12T09:00:55.847Z,4.10
2018-01-12T09:03:23.387Z,4.10
2018-01-12T09:05:50.810Z,4.10
2018-01-12T09:08:19.006Z,3.90
2018-01-12T09:10:46.858Z,3.90
2018-01-12T09:13:27.016Z,3.80
2018-01-12T09:16:06.462Z,3.80
2018-01-12T09:18:45.830Z,3.80
2018-01-12T09:21:24.898Z,3.70
2018-01-12T09:23:53.102Z,3.80
2018-01-12T09:26:20.546Z,3.80
2018-01-12T09:28:48.760Z,3.90
2018-01-12T09:31:16.202Z,3.90
2018-01-12T09:33:47.575Z,3.80
2018-01-12T09:36:15.014Z,3.90
2018-01-12T09:38:52.398Z,4.00
2018-01-12T09:41:20.245Z,4.30
2018-01-12T09:43:47.674Z,4.50
2018-01-12T09:46:15.886Z,4.40
2018-01-12T09:48:51.154Z,4.40
2018-01-12T09:51:19.430Z,4.40
2018-01-12T09:53:46.882Z,4.50
2018-01-12T09:56:14.331Z,4.40
2018-01-12T09:58:44.611Z,4.50
2018-01-12T10:01:29.423Z,4.30
2018-01-12T10:03:57.606Z,4.30
2018-01-12T10:06:25.054Z,4.20
2018-01-12T10:08:59.358Z,4.00
2018-01-12T10:11:26.783Z,4.10
2018-01-12T10:13:55.008Z,4.10
2018-01-12T10:16:22.446Z,4.10
2018-01-12T10:18:53.501Z,4.10
2018-01-12T10:21:32.944Z,4.30
2018-01-12T10:24:00.375Z,4.20
2018-01-12T10:26:27.817Z,4.30
2018-01-12T10:29:07.064Z,4.20
2018-01-12T10:31:41.102Z,4.20
2018-01-12T10:34:08.563Z,4.10
2018-01-12T10:36:39.138Z,4.20
2018-01-12T10:39:19.342Z,4.40
2018-01-12T10:41:58.883Z,4.30
2018-01-12T10:44:26.536Z,4.10
2018-01-12T10:47:05.815Z,4.10
2018-01-12T10:49:34.032Z,4.10
2018-01-12T10:52:07.391Z,4.10
2018-01-12T10:54:35.631Z,4.10
2018-01-12T10:57:03.062Z,4.10
2018-01-12T10:59:30.515Z,4.20
2018-01-12T11:01:57.941Z,4.20
2018-01-12T11:04:26.262Z,4.40
2018-01-12T11:06:53.958Z,4.40
2018-01-12T11:09:21.409Z,4.40
2018-01-12T11:11:48.848Z,4.40
2018-01-12T11:14:16.511Z,4.50
2018-01-12T11:16:45.362Z,4.70
2018-01-12T11:19:13.559Z,4.50
2018-01-12T11:21:41.106Z,4.50
2018-01-12T11:24:08.798Z,4.50
2018-01-12T11:26:36.242Z,4.60
2018-01-12T11:29:03.699Z,4.70
2018-01-12T11:31:31.130Z,4.50
2018-01-12T11:33:58.578Z,4.60
2018-01-12T11:36:26.071Z,4.50
2018-01-12T11:38:53.531Z,4.50
2018-01-12T11:41:21.288Z,4.50
2018-01-12T11:43:48.735Z,4.50
2018-01-12T11:46:16.748Z,4.40
2018-01-12T11:48:44.276Z,4.40
2018-01-12T11:51:11.732Z,4.50
2018-01-12T11:53:39.195Z,4.50
2018-01-12T11:56:06.627Z,4.50
2018-01-12T11:58:34.070Z,4.60
2018-01-12T12:01:01.519Z,4.50
2018-01-12T12:03:28.964Z,4.40
2018-01-12T12:05:57.163Z,4.50
2018-01-12T12:08:24.610Z,4.40
2018-01-12T12:10:52.102Z,4.60
2018-01-12T12:13:19.554Z,4.70
2018-01-12T12:15:47.838Z,4.60
2018-01-12T12:18:15.395Z,4.70
2018-01-12T12:20:43.072Z,4.60
2018-01-12T12:23:10.529Z,4.60
2018-01-12T12:25:37.957Z,4.70
2018-01-12T12:28:05.411Z,4.70
2018-01-12T12:30:32.846Z,4.60
2018-01-12T12:33:00.281Z,4.50
2018-01-12T12:35:28.494Z,4.50
2018-01-12T12:37:55.931Z,4.40
2018-01-12T12:40:23.382Z,4.40
2018-01-12T12:42:51.607Z,4.40
2018-01-12T12:45:19.050Z,4.40
2018-01-12T12:47:46.497Z,4.50
2018-01-12T12:50:14.274Z,4.60
2018-01-12T12:52:41.733Z,4.70
2018-01-12T12:55:09.176Z,4.80
2018-01-12T12:57:36.610Z,4.70
2018-01-12T13:00:04.106Z,4.50
2018-01-12T13:02:31.982Z,4.50
2018-01-12T13:04:59.527Z,4.50
2018-01-12T13:07:26.962Z,4.50
2018-01-12T13:09:54.437Z,4.40
2018-01-12T13:12:21.878Z,4.50
2018-01-12T13:14:49.322Z,4.60
2018-01-12T13:17:16.758Z,4.70
2018-01-12T13:19:44.969Z,4.70
2018-01-12T13:22:12.407Z,4.70
2018-01-12T13:24:39.855Z,4.60
2018-01-12T13:27:08.071Z,4.30
2018-01-12T13:29:35.498Z,4.30
2018-01-12T13:32:02.936Z,4.40
2018-01-12T13:34:31.155Z,4.50
2018-01-12T13:36:58.595Z,4.40
2018-01-12T13:39:26.050Z,4.40
2018-01-12T13:41:53.492Z,4.40
2018-01-12T13:44:20.934Z,4.50
2018-01-12T13:46:49.143Z,4.40
2018-01-12T13:49:16.604Z,4.40
2018-01-12T13:51:44.076Z,4.40
2018-01-12T13:54:11.527Z,4.50
2018-01-12T13:56:38.964Z,4.30
2018-01-12T13:59:06.421Z,4.30
2018-01-12T14:01:33.861Z,4.40
2018-01-12T14:04:02.066Z,4.50
2018-01-12T14:06:29.565Z,4.50
2018-01-12T14:08:56.965Z,4.60
2018-01-12T14:11:24.415Z,4.60
2018-01-12T14:13:51.876Z,4.60
2018-01-12T14:16:19.315Z,4.50
2018-01-12T14:18:47.533Z,4.50
2018-01-12T14:21:14.971Z,4.50
2018-01-12T14:23:42.422Z,4.60
2018-01-12T14:26:09.879Z,4.70
2018-01-12T14:28:37.325Z,4.70
2018-01-12T14:31:04.791Z,4.70
2018-01-12T14:33:32.239Z,4.60
2018-01-12T14:35:59.706Z,4.70
2018-01-12T14:38:27.184Z,4.60
2018-01-12T14:40:55.347Z,4.70
2018-01-12T14:43:22.792Z,4.70
2018-01-12T14:45:50.242Z,4.70
2018-01-12T14:48:17.678Z,4.70
2018-01-12T14:50:45.900Z,4.50
2018-01-12T14:53:13.343Z,4.50
2018-01-12T14:55:40.788Z,4.60
2018-01-12T14:58:08.222Z,4.60
2018-01-12T15:00:36.446Z,4.60
2018-01-12T15:03:03.894Z,4.60
2018-01-12T15:05:31.359Z,4.70
2018-01-12T15:07:58.797Z,4.60
2018-01-12T15:10:26.247Z,4.70
2018-01-12T15:12:53.682Z,4.70
2018-01-12T15:15:21.134Z,4.70
2018-01-12T15:17:49.331Z,4.60
2018-01-12T15:20:16.778Z,4.60
2018-01-12T15:22:44.213Z,4.70
2018-01-12T15:25:12.587Z,4.60
2018-01-12T15:27:40.014Z,4.60
2018-01-12T15:30:07.578Z,4.50
2018-01-12T15:32:35.122Z,4.50
2018-01-12T15:35:02.568Z,4.60
2018-01-12T15:37:30.034Z,4.50
2018-01-12T15:39:57.495Z,4.50
2018-01-12T15:42:24.939Z,4.50
2018-01-12T15:44:52.384Z,4.60
2018-01-12T15:47:19.864Z,4.60
2018-01-12T15:49:47.346Z,4.60
2018-01-12T15:52:14.791Z,4.60
2018-01-12T15:54:42.438Z,4.60
2018-01-12T15:57:09.886Z,4.60
2018-01-12T15:59:37.362Z,4.60
2018-01-12T16:02:04.799Z,4.70
2018-01-12T16:04:32.606Z,4.70
2018-01-12T16:07:00.047Z,4.60
2018-01-12T16:09:27.493Z,4.60
2018-01-12T16:11:54.947Z,4.60
2018-01-12T16:14:22.392Z,4.60
2018-01-12T16:16:49.834Z,4.70
2018-01-12T16:19:17.279Z,4.60
2018-01-12T16:21:44.735Z,4.60
2018-01-12T16:24:12.187Z,4.70
2018-01-12T16:26:40.415Z,4.70
2018-01-12T16:29:07.861Z,4.70
2018-01-12T16:31:35.320Z,4.70
2018-01-12T16:34:02.764Z,4.80
2018-01-12T16:36:30.221Z,4.70
2018-01-12T16:38:57.664Z,4.70
2018-01-12T16:41:25.114Z,4.70
2018-01-12T16:43:52.567Z,4.60
2018-01-12T16:46:20.021Z,4.60
2018-01-12T16:48:47.476Z,4.50
2018-01-12T16:51:14.930Z,4.60
2018-01-12T16:53:42.382Z,4.60
2018-01-12T16:56:09.831Z,4.70
2018-01-12T16:58:38.062Z,4.70
2018-01-12T17:01:05.530Z,4.70
2018-01-12T17:03:32.969Z,4.80
2018-01-12T17:06:00.422Z,4.70
2018-01-12T17:08:28.626Z,4.70
2018-01-12T17:10:56.079Z,4.70
2018-01-12T17:13:23.614Z,4.80
2018-01-12T17:15:51.064Z,4.70
2018-01-12T17:18:18.529Z,4.80
2018-01-12T17:20:45.994Z,4.70
2018-01-12T17:23:13.448Z,4.60
2018-01-12T17:25:40.897Z,4.60
2018-01-12T17:28:08.355Z,4.60
2018-01-12T17:30:35.823Z,4.60
2018-01-12T17:33:03.279Z,4.60
2018-01-12T17:35:30.734Z,4.70
2018-01-12T17:37:58.171Z,4.60
2018-01-12T17:40:25.760Z,4.60
2018-01-12T17:42:53.214Z,4.50
2018-01-12T17:45:20.676Z,4.60
2018-01-12T17:47:49.626Z,4.60
2018-01-12T17:50:17.082Z,4.60
2018-01-12T17:52:44.532Z,4.60
2018-01-12T17:55:11.990Z,4.70
2018-01-12T17:57:39.440Z,4.70
2018-01-12T18:00:06.886Z,4.70
2018-01-12T18:02:34.330Z,4.60
2018-01-12T18:05:02.551Z,4.60
2018-01-12T18:07:29.999Z,4.60
2018-01-12T18:09:57.462Z,4.60
2018-01-12T18:12:24.912Z,4.70
2018-01-12T18:14:52.365Z,4.60
2018-01-12T18:17:19.827Z,4.60
2018-01-12T18:19:47.283Z,4.60
2018-01-12T18:22:14.746Z,4.60
2018-01-12T18:24:42.204Z,4.60
2018-01-12T18:27:09.660Z,4.50
2018-01-12T18:29:37.107Z,4.50
2018-01-12T18:32:04.564Z,4.50
2018-01-12T18:34:32.041Z,4.50
2018-01-12T18:36:59.484Z,4.40
2018-01-12T18:39:26.943Z,4.40
2018-01-12T18:41:54.414Z,4.40
2018-01-12T18:44:21.946Z,4.40
2018-01-12T18:46:49.378Z,4.40
2018-01-12T18:49:17.599Z,4.50
2018-01-12T18:51:45.053Z,4.40
2018-01-12T18:54:13.269Z,4.40
2018-01-12T18:56:40.714Z,4.40
2018-01-12T18:59:08.170Z,4.40
2018-01-12T19:01:35.629Z,4.30
2018-01-12T19:04:03.063Z,4.40
2018-01-12T19:06:30.518Z,4.40
2018-01-12T19:08:58.084Z,4.30
2018-01-12T19:11:25.554Z,4.30
2018-01-12T19:13:53.010Z,4.30
2018-01-12T19:16:20.467Z,4.30
2018-01-12T19:18:48.022Z,4.30
2018-01-12T19:21:15.579Z,4.30
2018-01-12T19:23:43.038Z,4.40
2018-01-12T19:26:10.492Z,4.40
2018-01-12T19:28:37.945Z,4.30
2018-01-12T19:31:05.422Z,4.50
2018-01-12T19:33:32.868Z,4.40
2018-01-12T19:36:00.423Z,4.30
2018-01-12T19:38:27.867Z,4.30
2018-01-12T19:40:55.324Z,4.30
2018-01-12T19:43:22.786Z,4.20
2018-01-12T19:45:50.350Z,4.20
2018-01-12T19:48:17.836Z,4.10
2018-01-12T19:50:46.044Z,4.20
2018-01-12T19:53:13.559Z,4.20
2018-01-12T19:55:40.998Z,4.10
2018-01-12T19:58:08.450Z,4.10
2018-01-12T20:00:35.904Z,4.10
2018-01-12T20:03:03.353Z,4.00
2018-01-12T20:05:31.601Z,4.00
2018-01-12T20:07:59.077Z,4.00
2018-01-12T20:10:26.513Z,4.00
2018-01-12T20:12:53.975Z,4.00
2018-01-12T20:15:21.410Z,4.00
2018-01-12T20:17:48.875Z,4.10
2018-01-12T20:20:16.322Z,4.10
2018-01-12T20:22:43.774Z,4.10
2018-01-12T20:25:11.232Z,4.10
2018-01-12T20:27:39.458Z,4.10
2018-01-12T20:30:06.914Z,4.10
2018-01-12T20:32:34.410Z,4.10
2018-01-12T20:35:01.819Z,4.10
2018-01-12T20:37:29.274Z,4.10
2018-01-12T20:39:56.720Z,4.10
2018-01-12T20:42:24.179Z,4.10
2018-01-12T20:44:51.641Z,4.10
2018-01-12T20:47:19.091Z,4.10
2018-01-12T20:49:46.535Z,4.10
2018-01-12T20:52:13.989Z,4.00
2018-01-12T20:54:41.451Z,4.00
2018-01-12T20:57:08.902Z,4.10
2018-01-12T20:59:36.355Z,4.10
2018-01-12T21:02:03.804Z,4.00
2018-01-12T21:04:31.255Z,4.10
2018-01-12T21:06:59.502Z,4.10
2018-01-12T21:09:26.926Z,4.10
2018-01-12T21:11:54.378Z,4.00
2018-01-12T21:14:21.830Z,4.10
2018-01-12T21:16:49.300Z,4.10
2018-01-12T21:19:16.756Z,4.00
2018-01-12T21:21:44.206Z,4.00
2018-01-12T21:24:11.662Z,4.10
2018-01-12T21:26:39.123Z,4.10
2018-01-12T21:29:06.567Z,4.10
2018-01-12T21:31:34.059Z,4.10
2018-01-12T21:34:01.510Z,4.10
2018-01-12T21:36:28.968Z,4.10
2018-01-12T21:38:56.421Z,4.10
2018-01-12T21:41:23.871Z,4.10
2018-01-12T21:43:51.330Z,4.20
2018-01-12T21:46:18.782Z,4.10
2018-01-12T21:48:46.274Z,4.10
2018-01-12T21:51:13.713Z,4.10
2018-01-12T21:53:41.158Z,4.10
2018-01-12T21:56:08.607Z,4.20
2018-01-12T21:58:36.066Z,4.10
2018-01-12T22:01:03.506Z,4.10
2018-01-12T22:03:31.144Z,4.10
2018-01-12T22:05:58.983Z,4.10
2018-01-12T22:08:26.431Z,4.00
2018-01-12T22:10:53.990Z,4.00
2018-01-12T22:13:21.525Z,4.10
2018-01-12T22:15:48.990Z,4.10
2018-01-12T22:18:16.425Z,4.00
2018-01-12T22:20:43.886Z,4.00
2018-01-12T22:23:11.340Z,4.00
2018-01-12T22:25:38.793Z,4.00
2018-01-12T22:28:06.245Z,4.00
2018-01-12T22:30:33.695Z,4.00
2018-01-12T22:33:01.173Z,4.00
2018-01-12T22:35:28.622Z,4.00
2018-01-12T22:37:56.073Z,4.00
2018-01-12T22:40:23.506Z,4.00
2018-01-12T22:42:50.954Z,3.90
2018-01-12T22:45:19.161Z,4.00
2018-01-12T22:47:46.606Z,4.00
2018-01-12T22:50:14.053Z,4.00
2018-01-12T22:52:42.436Z,3.90
2018-01-12T22:55:09.879Z,3.90
2018-01-12T22:57:38.089Z,3.90
2018-01-12T23:00:05.639Z,3.90
2018-01-12T23:02:33.082Z,3.90
2018-01-12T23:05:00.531Z,3.90
2018-01-12T23:07:27.978Z,4.00
2018-01-12T23:09:56.182Z,4.00
2018-01-12T23:12:23.640Z,4.00
2018-01-12T23:14:51.087Z,3.90
2018-01-12T23:17:18.530Z,3.90
2018-01-12T23:19:45.978Z,3.90
2018-01-12T23:22:14.186Z,3.90
2018-01-12T23:24:41.626Z,3.90
2018-01-12T23:27:09.079Z,4.00
2018-01-12T23:29:36.521Z,3.90
2018-01-12T23:32:04.729Z,3.90
2018-01-12T23:34:32.175Z,3.90
2018-01-12T23:36:59.630Z,4.00
2018-01-12T23:39:27.097Z,3.90
2018-01-12T23:41:54.536Z,3.90
2018-01-12T23:44:21.965Z,3.90
2018-01-12T23:46:50.190Z,3.90
2018-01-12T23:49:17.625Z,3.90
2018-01-12T23:51:45.083Z,3.90
2018-01-12T23:54:12.530Z,3.90
2018-01-12T23:56:39.966Z,4.00
2018-01-12T23:59:08.172Z,4.00
